sensor_id;sensor_type;location;lat;lon;timestamp;temperature;humidity
52471;DHT22;38382;53.160;7.026;2024-03-02T00:00:16;5.90;99.90
52471;DHT22;38382;53.160;7.026;2024-03-02T00:02:42;5.90;99.90
52471;DHT22;38382;53.160;7.026;2024-03-02T00:05:13;6.00;99.90
52471;DHT22;38382;53.160;7.026;2024-03-02T00:07:41;6.10;99.90
52471;DHT22;38382;53.160;7.026;2024-03-02T00:10:11;6.10;99.90
52471;DHT22;38382;53.160;7.026;2024-03-02T00:12:40;6.00;99.90
52471;DHT22;38382;53.160;7.026;2024-03-02T00:17:56;6.00;99.90
52471;DHT22;38382;53.160;7.026;2024-03-02T00:20:22;5.90;99.90
52471;DHT22;38382;53.160;7.026;2024-03-02T00:23:01;6.00;99.90
52471;DHT22;38382;53.160;7.026;2024-03-02T00:25:47;6.00;99.90
52471;DHT22;38382;53.160;7.026;2024-03-02T00:28:19;6.00;99.90
52471;DHT22;38382;53.160;7.026;2024-03-02T00:31:07;6.00;99.90
52471;DHT22;38382;53.160;7.026;2024-03-02T00:33:35;6.00;99.90
52471;DHT22;38382;53.160;7.026;2024-03-02T00:36:05;6.00;99.90
52471;DHT22;38382;53.160;7.026;2024-03-02T00:38:33;6.00;99.90
52471;DHT22;38382;53.160;7.026;2024-03-02T00:41:03;5.90;99.90
52471;DHT22;38382;53.160;7.026;2024-03-02T00:46:20;5.90;99.90
52471;DHT22;38382;53.160;7.026;2024-03-02T00:48:57;5.90;99.90
52471;DHT22;38382;53.160;7.026;2024-03-02T00:51:24;5.80;99.90
52471;DHT22;38382;53.160;7.026;2024-03-02T00:53:52;6.00;99.90
52471;DHT22;38382;53.160;7.026;2024-03-02T00:56:18;5.80;99.90
52471;DHT22;38382;53.160;7.026;2024-03-02T00:58:44;5.80;99.90
52471;DHT22;38382;53.160;7.026;2024-03-02T01:01:10;5.80;99.90
52471;DHT22;38382;53.160;7.026;2024-03-02T01:03:36;5.90;99.90
52471;DHT22;38382;53.160;7.026;2024-03-02T01:06:03;5.80;99.90
52471;DHT22;38382;53.160;7.026;2024-03-02T01:08:29;5.80;99.90
52471;DHT22;38382;53.160;7.026;2024-03-02T01:10:55;6.00;99.90
52471;DHT22;38382;53.160;7.026;2024-03-02T01:13:24;5.80;99.90
52471;DHT22;38382;53.160;7.026;2024-03-02T01:15:50;5.80;99.90
52471;DHT22;38382;53.160;7.026;2024-03-02T01:18:16;5.80;99.90
52471;DHT22;38382;53.160;7.026;2024-03-02T01:20:42;5.90;99.90
52471;DHT22;38382;53.160;7.026;2024-03-02T01:23:07;5.90;99.90
52471;DHT22;38382;53.160;7.026;2024-03-02T01:25:33;5.90;99.90
52471;DHT22;38382;53.160;7.026;2024-03-02T01:27:59;5.90;99.90
52471;DHT22;38382;53.160;7.026;2024-03-02T01:30:25;5.90;99.90
52471;DHT22;38382;53.160;7.026;2024-03-02T01:32:51;5.90;99.90
52471;DHT22;38382;53.160;7.026;2024-03-02T01:35:16;5.90;99.90
52471;DHT22;38382;53.160;7.026;2024-03-02T01:37:42;5.90;99.90
52471;DHT22;38382;53.160;7.026;2024-03-02T01:40:08;6.00;99.90
52471;DHT22;38382;53.160;7.026;2024-03-02T01:42:36;5.90;99.90
52471;DHT22;38382;53.160;7.026;2024-03-02T01:45:03;5.90;99.90
52471;DHT22;38382;53.160;7.026;2024-03-02T01:47:29;5.90;99.90
52471;DHT22;38382;53.160;7.026;2024-03-02T01:49:55;6.00;99.90
52471;DHT22;38382;53.160;7.026;2024-03-02T01:52:21;6.00;99.90
52471;DHT22;38382;53.160;7.026;2024-03-02T01:54:47;6.00;99.90
52471;DHT22;38382;53.160;7.026;2024-03-02T01:57:12;6.00;99.90
52471;DHT22;38382;53.160;7.026;2024-03-02T01:59:38;6.00;99.90
52471;DHT22;38382;53.160;7.026;2024-03-02T02:02:04;6.10;99.90
52471;DHT22;38382;53.160;7.026;2024-03-02T02:04:30;6.10;99.90
52471;DHT22;38382;53.160;7.026;2024-03-02T02:06:56;6.10;99.90
52471;DHT22;38382;53.160;7.026;2024-03-02T02:09:22;6.10;99.90
52471;DHT22;38382;53.160;7.026;2024-03-02T02:11:48;6.10;99.90
52471;DHT22;38382;53.160;7.026;2024-03-02T02:14:14;6.10;99.90
52471;DHT22;38382;53.160;7.026;2024-03-02T02:16:39;6.20;99.90
52471;DHT22;38382;53.160;7.026;2024-03-02T02:19:05;6.20;99.90
52471;DHT22;38382;53.160;7.026;2024-03-02T02:21:31;6.20;99.90
52471;DHT22;38382;53.160;7.026;2024-03-02T02:23:56;6.20;99.90
52471;DHT22;38382;53.160;7.026;2024-03-02T02:26:22;6.30;99.90
52471;DHT22;38382;53.160;7.026;2024-03-02T02:28:48;6.30;99.90
52471;DHT22;38382;53.160;7.026;2024-03-02T02:31:14;6.30;99.90
52471;DHT22;38382;53.160;7.026;2024-03-02T02:33:40;6.30;99.90
52471;DHT22;38382;53.160;7.026;2024-03-02T02:36:06;6.60;99.90
52471;DHT22;38382;53.160;7.026;2024-03-02T02:38:37;6.40;99.90
52471;DHT22;38382;53.160;7.026;2024-03-02T02:41:04;6.40;99.90
52471;DHT22;38382;53.160;7.026;2024-03-02T02:43:29;6.50;99.90
52471;DHT22;38382;53.160;7.026;2024-03-02T02:45:55;6.50;99.90
52471;DHT22;38382;53.160;7.026;2024-03-02T02:48:21;6.80;99.90
52471;DHT22;38382;53.160;7.026;2024-03-02T02:50:47;6.50;99.90
52471;DHT22;38382;53.160;7.026;2024-03-02T02:53:12;7.00;99.90
52471;DHT22;38382;53.160;7.026;2024-03-02T02:55:39;6.60;99.90
52471;DHT22;38382;53.160;7.026;2024-03-02T02:58:09;6.60;99.90
52471;DHT22;38382;53.160;7.026;2024-03-02T03:00:35;6.60;99.90
52471;DHT22;38382;53.160;7.026;2024-03-02T03:03:02;6.70;99.90
52471;DHT22;38382;53.160;7.026;2024-03-02T03:05:27;6.70;99.90
52471;DHT22;38382;53.160;7.026;2024-03-02T03:07:53;6.70;99.90
52471;DHT22;38382;53.160;7.026;2024-03-02T03:10:19;6.70;99.90
52471;DHT22;38382;53.160;7.026;2024-03-02T03:12:47;6.70;99.90
52471;DHT22;38382;53.160;7.026;2024-03-02T03:15:13;6.70;99.90
52471;DHT22;38382;53.160;7.026;2024-03-02T03:17:40;6.70;99.90
52471;DHT22;38382;53.160;7.026;2024-03-02T03:20:06;6.70;99.90
52471;DHT22;38382;53.160;7.026;2024-03-02T03:22:36;6.70;99.90
52471;DHT22;38382;53.160;7.026;2024-03-02T03:25:01;6.70;99.90
52471;DHT22;38382;53.160;7.026;2024-03-02T03:27:29;6.70;99.90
52471;DHT22;38382;53.160;7.026;2024-03-02T03:29:55;6.70;99.90
52471;DHT22;38382;53.160;7.026;2024-03-02T03:32:20;6.80;99.90
52471;DHT22;38382;53.160;7.026;2024-03-02T03:34:47;6.70;99.90
52471;DHT22;38382;53.160;7.026;2024-03-02T03:37:14;6.80;99.90
52471;DHT22;38382;53.160;7.026;2024-03-02T03:39:40;6.80;99.90
52471;DHT22;38382;53.160;7.026;2024-03-02T03:42:05;6.80;99.90
52471;DHT22;38382;53.160;7.026;2024-03-02T03:44:32;6.90;99.90
52471;DHT22;38382;53.160;7.026;2024-03-02T03:46:57;6.90;99.90
52471;DHT22;38382;53.160;7.026;2024-03-02T03:49:23;7.10;99.90
52471;DHT22;38382;53.160;7.026;2024-03-02T03:51:49;7.10;99.90
52471;DHT22;38382;53.160;7.026;2024-03-02T03:54:15;6.90;99.90
52471;DHT22;38382;53.160;7.026;2024-03-02T03:56:40;6.90;99.90
52471;DHT22;38382;53.160;7.026;2024-03-02T03:59:06;6.90;99.90
52471;DHT22;38382;53.160;7.026;2024-03-02T04:01:32;6.90;99.90
52471;DHT22;38382;53.160;7.026;2024-03-02T04:03:59;6.90;99.90
52471;DHT22;38382;53.160;7.026;2024-03-02T04:06:25;6.90;99.90
52471;DHT22;38382;53.160;7.026;2024-03-02T04:08:50;6.90;99.90
52471;DHT22;38382;53.160;7.026;2024-03-02T04:11:16;7.00;99.90
52471;DHT22;38382;53.160;7.026;2024-03-02T04:13:42;6.80;99.90
52471;DHT22;38382;53.160;7.026;2024-03-02T04:16:08;6.80;99.90
52471;DHT22;38382;53.160;7.026;2024-03-02T04:18:33;6.70;99.90
52471;DHT22;38382;53.160;7.026;2024-03-02T04:21:00;6.70;99.90
52471;DHT22;38382;53.160;7.026;2024-03-02T04:23:26;6.60;99.90
52471;DHT22;38382;53.160;7.026;2024-03-02T04:25:53;6.60;99.90
52471;DHT22;38382;53.160;7.026;2024-03-02T04:28:18;6.50;99.90
52471;DHT22;38382;53.160;7.026;2024-03-02T04:30:44;6.50;99.90
52471;DHT22;38382;53.160;7.026;2024-03-02T04:33:10;6.40;99.90
52471;DHT22;38382;53.160;7.026;2024-03-02T04:35:38;6.50;99.90
52471;DHT22;38382;53.160;7.026;2024-03-02T04:38:04;6.30;99.90
52471;DHT22;38382;53.160;7.026;2024-03-02T04:40:30;6.20;99.90
52471;DHT22;38382;53.160;7.026;2024-03-02T04:42:56;7.10;99.90
52471;DHT22;38382;53.160;7.026;2024-03-02T04:45:21;6.10;99.90
52471;DHT22;38382;53.160;7.026;2024-03-02T04:47:47;6.10;99.90
52471;DHT22;38382;53.160;7.026;2024-03-02T04:50:13;7.00;99.90
52471;DHT22;38382;53.160;7.026;2024-03-02T04:52:38;6.00;99.90
52471;DHT22;38382;53.160;7.026;2024-03-02T04:55:04;5.90;99.90
52471;DHT22;38382;53.160;7.026;2024-03-02T04:58:00;5.90;99.90
52471;DHT22;38382;53.160;7.026;2024-03-02T05:00:26;5.90;99.90
52471;DHT22;38382;53.160;7.026;2024-03-02T05:02:52;5.80;99.90
52471;DHT22;38382;53.160;7.026;2024-03-02T05:05:17;5.80;99.90
52471;DHT22;38382;53.160;7.026;2024-03-02T05:07:43;5.80;99.90
52471;DHT22;38382;53.160;7.026;2024-03-02T05:10:10;5.70;99.90
52471;DHT22;38382;53.160;7.026;2024-03-02T05:12:37;5.70;99.90
52471;DHT22;38382;53.160;7.026;2024-03-02T05:15:22;5.70;99.90
52471;DHT22;38382;53.160;7.026;2024-03-02T05:17:47;6.00;99.90
52471;DHT22;38382;53.160;7.026;2024-03-02T05:20:13;6.00;99.90
52471;DHT22;38382;53.160;7.026;2024-03-02T05:22:39;5.70;99.90
52471;DHT22;38382;53.160;7.026;2024-03-02T05:25:06;5.70;99.90
52471;DHT22;38382;53.160;7.026;2024-03-02T05:27:32;5.70;99.90
52471;DHT22;38382;53.160;7.026;2024-03-02T05:29:59;5.80;99.90
52471;DHT22;38382;53.160;7.026;2024-03-02T05:32:24;5.80;99.90
52471;DHT22;38382;53.160;7.026;2024-03-02T05:34:50;5.80;99.90
52471;DHT22;38382;53.160;7.026;2024-03-02T05:37:17;5.80;99.90
52471;DHT22;38382;53.160;7.026;2024-03-02T05:39:42;5.90;99.90
52471;DHT22;38382;53.160;7.026;2024-03-02T05:42:14;5.90;99.90
52471;DHT22;38382;53.160;7.026;2024-03-02T05:44:42;5.90;99.90
52471;DHT22;38382;53.160;7.026;2024-03-02T05:47:07;5.90;99.90
52471;DHT22;38382;53.160;7.026;2024-03-02T05:49:36;5.90;99.90
52471;DHT22;38382;53.160;7.026;2024-03-02T05:52:01;5.80;99.90
52471;DHT22;38382;53.160;7.026;2024-03-02T05:54:28;5.80;99.90
52471;DHT22;38382;53.160;7.026;2024-03-02T05:56:54;5.70;99.90
52471;DHT22;38382;53.160;7.026;2024-03-02T05:59:21;5.70;99.90
52471;DHT22;38382;53.160;7.026;2024-03-02T06:01:47;5.60;99.90
52471;DHT22;38382;53.160;7.026;2024-03-02T06:04:13;5.60;99.90
52471;DHT22;38382;53.160;7.026;2024-03-02T06:06:40;5.60;99.90
52471;DHT22;38382;53.160;7.026;2024-03-02T06:09:06;5.60;99.90
52471;DHT22;38382;53.160;7.026;2024-03-02T06:11:36;5.40;99.90
52471;DHT22;38382;53.160;7.026;2024-03-02T06:14:03;5.40;99.90
52471;DHT22;38382;53.160;7.026;2024-03-02T06:16:29;5.30;99.90
52471;DHT22;38382;53.160;7.026;2024-03-02T06:18:55;5.30;99.90
52471;DHT22;38382;53.160;7.026;2024-03-02T06:21:23;5.30;99.90
52471;DHT22;38382;53.160;7.026;2024-03-02T06:23:49;5.30;99.90
52471;DHT22;38382;53.160;7.026;2024-03-02T06:26:15;5.50;99.90
52471;DHT22;38382;53.160;7.026;2024-03-02T06:28:41;5.40;99.90
52471;DHT22;38382;53.160;7.026;2024-03-02T06:31:07;5.40;99.90
52471;DHT22;38382;53.160;7.026;2024-03-02T06:33:32;5.50;99.90
52471;DHT22;38382;53.160;7.026;2024-03-02T06:35:58;5.50;99.90
52471;DHT22;38382;53.160;7.026;2024-03-02T06:38:24;6.00;99.90
52471;DHT22;38382;53.160;7.026;2024-03-02T06:40:49;5.50;99.90
52471;DHT22;38382;53.160;7.026;2024-03-02T06:43:15;5.80;99.90
52471;DHT22;38382;53.160;7.026;2024-03-02T06:45:41;5.80;99.90
52471;DHT22;38382;53.160;7.026;2024-03-02T06:48:07;6.50;99.90
52471;DHT22;38382;53.160;7.026;2024-03-02T06:50:33;5.60;99.90
52471;DHT22;38382;53.160;7.026;2024-03-02T06:52:58;5.40;99.90
52471;DHT22;38382;53.160;7.026;2024-03-02T06:55:24;5.40;99.90
52471;DHT22;38382;53.160;7.026;2024-03-02T06:57:50;5.70;99.90
52471;DHT22;38382;53.160;7.026;2024-03-02T07:00:17;5.40;99.90
52471;DHT22;38382;53.160;7.026;2024-03-02T07:02:46;5.50;99.90
52471;DHT22;38382;53.160;7.026;2024-03-02T07:05:13;5.50;99.90
52471;DHT22;38382;53.160;7.026;2024-03-02T07:07:38;5.50;99.90
52471;DHT22;38382;53.160;7.026;2024-03-02T07:10:05;5.60;99.90
52471;DHT22;38382;53.160;7.026;2024-03-02T07:12:33;5.50;99.90
52471;DHT22;38382;53.160;7.026;2024-03-02T07:14:58;5.50;99.90
52471;DHT22;38382;53.160;7.026;2024-03-02T07:17:31;5.40;99.90
52471;DHT22;38382;53.160;7.026;2024-03-02T07:19:57;5.50;99.90
52471;DHT22;38382;53.160;7.026;2024-03-02T07:22:23;5.50;99.90
52471;DHT22;38382;53.160;7.026;2024-03-02T07:24:49;5.60;99.90
52471;DHT22;38382;53.160;7.026;2024-03-02T07:27:15;5.60;99.90
52471;DHT22;38382;53.160;7.026;2024-03-02T07:29:42;6.10;99.90
52471;DHT22;38382;53.160;7.026;2024-03-02T07:32:09;5.80;99.90
52471;DHT22;38382;53.160;7.026;2024-03-02T07:34:35;5.90;99.90
52471;DHT22;38382;53.160;7.026;2024-03-02T07:37:01;5.90;99.90
52471;DHT22;38382;53.160;7.026;2024-03-02T07:39:27;6.00;99.90
52471;DHT22;38382;53.160;7.026;2024-03-02T07:41:53;6.10;99.90
52471;DHT22;38382;53.160;7.026;2024-03-02T07:44:19;6.20;99.90
52471;DHT22;38382;53.160;7.026;2024-03-02T07:46:45;6.30;99.90
52471;DHT22;38382;53.160;7.026;2024-03-02T07:49:21;6.40;99.90
52471;DHT22;38382;53.160;7.026;2024-03-02T07:51:46;6.50;99.90
52471;DHT22;38382;53.160;7.026;2024-03-02T07:54:12;6.50;99.90
52471;DHT22;38382;53.160;7.026;2024-03-02T07:56:38;6.70;99.90
52471;DHT22;38382;53.160;7.026;2024-03-02T07:59:04;7.70;99.90
52471;DHT22;38382;53.160;7.026;2024-03-02T08:01:31;6.90;99.90
52471;DHT22;38382;53.160;7.026;2024-03-02T08:03:57;7.10;99.90
52471;DHT22;38382;53.160;7.026;2024-03-02T08:06:27;7.20;99.90
52471;DHT22;38382;53.160;7.026;2024-03-02T08:08:57;7.40;99.90
52471;DHT22;38382;53.160;7.026;2024-03-02T08:11:24;7.50;99.90
52471;DHT22;38382;53.160;7.026;2024-03-02T08:13:50;7.60;99.90
52471;DHT22;38382;53.160;7.026;2024-03-02T08:16:16;7.60;99.90
52471;DHT22;38382;53.160;7.026;2024-03-02T08:18:44;7.70;99.90
52471;DHT22;38382;53.160;7.026;2024-03-02T08:21:10;7.70;99.90
52471;DHT22;38382;53.160;7.026;2024-03-02T08:23:35;7.70;99.90
52471;DHT22;38382;53.160;7.026;2024-03-02T08:26:03;7.70;99.90
52471;DHT22;38382;53.160;7.026;2024-03-02T08:28:29;7.70;99.90
52471;DHT22;38382;53.160;7.026;2024-03-02T08:30:55;7.80;99.90
52471;DHT22;38382;53.160;7.026;2024-03-02T08:33:22;7.80;99.90
52471;DHT22;38382;53.160;7.026;2024-03-02T08:35:48;7.80;99.90
52471;DHT22;38382;53.160;7.026;2024-03-02T08:38:13;7.80;99.90
52471;DHT22;38382;53.160;7.026;2024-03-02T08:40:39;7.90;99.90
52471;DHT22;38382;53.160;7.026;2024-03-02T08:43:05;7.90;99.90
52471;DHT22;38382;53.160;7.026;2024-03-02T08:45:31;7.90;99.90
52471;DHT22;38382;53.160;7.026;2024-03-02T08:47:56;8.20;99.90
52471;DHT22;38382;53.160;7.026;2024-03-02T08:50:22;8.10;99.90
52471;DHT22;38382;53.160;7.026;2024-03-02T08:52:48;8.10;99.90
52471;DHT22;38382;53.160;7.026;2024-03-02T08:55:13;8.20;99.90
52471;DHT22;38382;53.160;7.026;2024-03-02T08:57:40;8.30;99.90
52471;DHT22;38382;53.160;7.026;2024-03-02T09:00:07;8.30;99.90
52471;DHT22;38382;53.160;7.026;2024-03-02T09:02:34;8.40;99.90
52471;DHT22;38382;53.160;7.026;2024-03-02T09:05:00;8.50;99.90
52471;DHT22;38382;53.160;7.026;2024-03-02T09:07:26;8.50;99.90
52471;DHT22;38382;53.160;7.026;2024-03-02T09:09:52;8.60;99.90
52471;DHT22;38382;53.160;7.026;2024-03-02T09:12:18;8.70;99.90
52471;DHT22;38382;53.160;7.026;2024-03-02T09:14:44;8.70;99.90
52471;DHT22;38382;53.160;7.026;2024-03-02T09:17:10;8.80;99.90
52471;DHT22;38382;53.160;7.026;2024-03-02T09:19:37;8.90;99.90
52471;DHT22;38382;53.160;7.026;2024-03-02T09:22:04;8.90;99.90
52471;DHT22;38382;53.160;7.026;2024-03-02T09:24:31;9.00;99.90
52471;DHT22;38382;53.160;7.026;2024-03-02T09:26:57;9.00;99.90
52471;DHT22;38382;53.160;7.026;2024-03-02T09:29:22;9.20;99.90
52471;DHT22;38382;53.160;7.026;2024-03-02T09:31:48;9.30;99.90
52471;DHT22;38382;53.160;7.026;2024-03-02T09:34:16;9.50;99.90
52471;DHT22;38382;53.160;7.026;2024-03-02T09:36:42;9.60;99.90
52471;DHT22;38382;53.160;7.026;2024-03-02T09:39:08;10.00;99.90
52471;DHT22;38382;53.160;7.026;2024-03-02T09:41:38;10.40;99.90
52471;DHT22;38382;53.160;7.026;2024-03-02T09:44:05;10.80;99.90
52471;DHT22;38382;53.160;7.026;2024-03-02T09:46:33;11.10;99.90
52471;DHT22;38382;53.160;7.026;2024-03-02T09:49:01;11.40;99.90
52471;DHT22;38382;53.160;7.026;2024-03-02T09:51:26;11.50;99.90
52471;DHT22;38382;53.160;7.026;2024-03-02T09:53:54;11.60;99.90
52471;DHT22;38382;53.160;7.026;2024-03-02T09:56:21;11.70;99.90
52471;DHT22;38382;53.160;7.026;2024-03-02T09:58:47;11.80;99.90
52471;DHT22;38382;53.160;7.026;2024-03-02T10:01:13;12.00;99.90
52471;DHT22;38382;53.160;7.026;2024-03-02T10:03:39;12.10;99.90
52471;DHT22;38382;53.160;7.026;2024-03-02T10:06:27;12.00;99.90
52471;DHT22;38382;53.160;7.026;2024-03-02T10:08:55;11.90;99.90
52471;DHT22;38382;53.160;7.026;2024-03-02T10:11:47;11.90;99.90
52471;DHT22;38382;53.160;7.026;2024-03-02T10:14:13;12.20;99.90
52471;DHT22;38382;53.160;7.026;2024-03-02T10:16:41;12.50;99.90
52471;DHT22;38382;53.160;7.026;2024-03-02T10:19:23;12.70;99.90
52471;DHT22;38382;53.160;7.026;2024-03-02T10:21:50;12.90;99.90
52471;DHT22;38382;53.160;7.026;2024-03-02T10:24:21;12.90;99.90
52471;DHT22;38382;53.160;7.026;2024-03-02T10:26:48;12.90;99.90
52471;DHT22;38382;53.160;7.026;2024-03-02T10:29:14;12.90;99.90
52471;DHT22;38382;53.160;7.026;2024-03-02T10:31:41;13.00;99.90
52471;DHT22;38382;53.160;7.026;2024-03-02T10:34:08;13.10;99.90
52471;DHT22;38382;53.160;7.026;2024-03-02T10:36:34;13.10;99.90
52471;DHT22;38382;53.160;7.026;2024-03-02T10:39:04;13.00;99.90
52471;DHT22;38382;53.160;7.026;2024-03-02T10:41:36;12.60;99.90
52471;DHT22;38382;53.160;7.026;2024-03-02T10:44:03;12.40;99.90
52471;DHT22;38382;53.160;7.026;2024-03-02T10:46:32;12.20;99.90
52471;DHT22;38382;53.160;7.026;2024-03-02T10:48:59;12.20;99.90
52471;DHT22;38382;53.160;7.026;2024-03-02T10:51:27;12.10;99.90
52471;DHT22;38382;53.160;7.026;2024-03-02T10:53:54;12.10;99.90
52471;DHT22;38382;53.160;7.026;2024-03-02T10:56:43;12.40;99.90
52471;DHT22;38382;53.160;7.026;2024-03-02T10:59:35;12.60;99.90
52471;DHT22;38382;53.160;7.026;2024-03-02T11:02:03;12.60;99.90
52471;DHT22;38382;53.160;7.026;2024-03-02T11:04:30;12.80;99.90
52471;DHT22;38382;53.160;7.026;2024-03-02T11:07:02;12.70;99.90
52471;DHT22;38382;53.160;7.026;2024-03-02T11:09:29;12.90;99.90
52471;DHT22;38382;53.160;7.026;2024-03-02T11:15:06;13.10;99.90
52471;DHT22;38382;53.160;7.026;2024-03-02T11:17:35;13.00;99.90
52471;DHT22;38382;53.160;7.026;2024-03-02T11:20:03;13.10;99.90
52471;DHT22;38382;53.160;7.026;2024-03-02T11:22:29;13.40;99.90
52471;DHT22;38382;53.160;7.026;2024-03-02T11:24:55;13.70;99.90
52471;DHT22;38382;53.160;7.026;2024-03-02T11:32:58;13.60;99.90
52471;DHT22;38382;53.160;7.026;2024-03-02T11:35:28;13.70;99.90
52471;DHT22;38382;53.160;7.026;2024-03-02T11:37:56;13.50;99.90
52471;DHT22;38382;53.160;7.026;2024-03-02T11:40:25;13.50;99.90
52471;DHT22;38382;53.160;7.026;2024-03-02T11:42:52;13.70;99.90
52471;DHT22;38382;53.160;7.026;2024-03-02T11:45:22;14.10;99.90
52471;DHT22;38382;53.160;7.026;2024-03-02T11:47:56;14.40;99.90
52471;DHT22;38382;53.160;7.026;2024-03-02T11:52:56;14.60;99.90
52471;DHT22;38382;53.160;7.026;2024-03-02T11:55:27;14.80;99.90
52471;DHT22;38382;53.160;7.026;2024-03-02T11:57:54;14.80;99.90
52471;DHT22;38382;53.160;7.026;2024-03-02T12:00:20;14.80;99.90
52471;DHT22;38382;53.160;7.026;2024-03-02T12:02:47;14.90;99.90
52471;DHT22;38382;53.160;7.026;2024-03-02T12:05:25;15.00;99.90
52471;DHT22;38382;53.160;7.026;2024-03-02T12:08:05;15.00;99.90
52471;DHT22;38382;53.160;7.026;2024-03-02T12:10:32;15.30;99.90
52471;DHT22;38382;53.160;7.026;2024-03-02T12:13:00;15.70;99.90
52471;DHT22;38382;53.160;7.026;2024-03-02T12:15:27;15.90;99.90
52471;DHT22;38382;53.160;7.026;2024-03-02T12:17:54;15.90;99.90
52471;DHT22;38382;53.160;7.026;2024-03-02T12:20:20;16.10;99.90
52471;DHT22;38382;53.160;7.026;2024-03-02T12:22:46;16.30;99.90
52471;DHT22;38382;53.160;7.026;2024-03-02T12:25:12;16.40;99.90
52471;DHT22;38382;53.160;7.026;2024-03-02T12:27:39;16.60;98.70
52471;DHT22;38382;53.160;7.026;2024-03-02T12:30:06;16.30;97.70
52471;DHT22;38382;53.160;7.026;2024-03-02T12:32:37;16.20;97.80
52471;DHT22;38382;53.160;7.026;2024-03-02T12:35:04;16.00;96.40
52471;DHT22;38382;53.160;7.026;2024-03-02T12:37:31;16.10;98.20
52471;DHT22;38382;53.160;7.026;2024-03-02T12:39:56;16.20;97.40
52471;DHT22;38382;53.160;7.026;2024-03-02T12:42:24;16.30;97.60
52471;DHT22;38382;53.160;7.026;2024-03-02T12:44:52;16.20;97.50
52471;DHT22;38382;53.160;7.026;2024-03-02T12:47:21;16.60;99.90
52471;DHT22;38382;53.160;7.026;2024-03-02T12:49:47;17.00;98.70
52471;DHT22;38382;53.160;7.026;2024-03-02T12:52:13;17.50;97.10
52471;DHT22;38382;53.160;7.026;2024-03-02T12:54:39;17.90;96.60
52471;DHT22;38382;53.160;7.026;2024-03-02T12:57:05;17.90;93.60
52471;DHT22;38382;53.160;7.026;2024-03-02T12:59:31;17.50;93.00
52471;DHT22;38382;53.160;7.026;2024-03-02T13:01:56;17.00;94.30
52471;DHT22;38382;53.160;7.026;2024-03-02T13:04:27;16.70;94.50
52471;DHT22;38382;53.160;7.026;2024-03-02T13:06:56;16.50;94.30
52471;DHT22;38382;53.160;7.026;2024-03-02T13:09:26;16.70;95.50
52471;DHT22;38382;53.160;7.026;2024-03-02T13:11:52;17.00;94.60
52471;DHT22;38382;53.160;7.026;2024-03-02T13:14:18;16.90;93.30
52471;DHT22;38382;53.160;7.026;2024-03-02T13:16:45;16.50;92.90
52471;DHT22;38382;53.160;7.026;2024-03-02T13:19:12;16.70;94.00
52471;DHT22;38382;53.160;7.026;2024-03-02T13:21:38;17.10;94.80
52471;DHT22;38382;53.160;7.026;2024-03-02T13:24:05;17.70;94.90
52471;DHT22;38382;53.160;7.026;2024-03-02T13:26:31;18.20;93.70
52471;DHT22;38382;53.160;7.026;2024-03-02T13:28:57;18.80;93.00
52471;DHT22;38382;53.160;7.026;2024-03-02T13:31:22;19.20;93.00
52471;DHT22;38382;53.160;7.026;2024-03-02T13:33:48;19.30;90.30
52471;DHT22;38382;53.160;7.026;2024-03-02T13:36:14;19.40;90.00
52471;DHT22;38382;53.160;7.026;2024-03-02T13:38:40;19.50;90.80
52471;DHT22;38382;53.160;7.026;2024-03-02T13:41:05;19.70;89.90
52471;DHT22;38382;53.160;7.026;2024-03-02T13:43:31;20.00;90.40
52471;DHT22;38382;53.160;7.026;2024-03-02T13:46:02;20.40;88.70
52471;DHT22;38382;53.160;7.026;2024-03-02T13:48:27;20.70;86.80
52471;DHT22;38382;53.160;7.026;2024-03-02T13:50:53;20.90;86.50
52471;DHT22;38382;53.160;7.026;2024-03-02T13:53:19;20.90;84.70
52471;DHT22;38382;53.160;7.026;2024-03-02T13:55:45;20.70;89.40
52471;DHT22;38382;53.160;7.026;2024-03-02T13:58:11;20.50;83.50
52471;DHT22;38382;53.160;7.026;2024-03-02T14:00:37;20.40;84.00
52471;DHT22;38382;53.160;7.026;2024-03-02T14:03:05;20.40;82.80
52471;DHT22;38382;53.160;7.026;2024-03-02T14:05:31;20.30;83.90
52471;DHT22;38382;53.160;7.026;2024-03-02T14:07:57;20.20;81.30
52471;DHT22;38382;53.160;7.026;2024-03-02T14:10:24;20.30;82.90
52471;DHT22;38382;53.160;7.026;2024-03-02T14:12:50;20.30;83.70
52471;DHT22;38382;53.160;7.026;2024-03-02T14:15:16;20.10;81.80
52471;DHT22;38382;53.160;7.026;2024-03-02T14:17:41;20.40;82.00
52471;DHT22;38382;53.160;7.026;2024-03-02T14:20:08;20.60;80.50
52471;DHT22;38382;53.160;7.026;2024-03-02T14:22:37;21.20;81.60
52471;DHT22;38382;53.160;7.026;2024-03-02T14:25:03;21.30;79.80
52471;DHT22;38382;53.160;7.026;2024-03-02T14:27:29;21.40;79.20
52471;DHT22;38382;53.160;7.026;2024-03-02T14:29:55;21.30;78.10
52471;DHT22;38382;53.160;7.026;2024-03-02T14:32:21;21.40;78.50
52471;DHT22;38382;53.160;7.026;2024-03-02T14:34:47;21.80;77.90
52471;DHT22;38382;53.160;7.026;2024-03-02T14:37:14;21.90;79.10
52471;DHT22;38382;53.160;7.026;2024-03-02T14:39:40;21.60;76.90
52471;DHT22;38382;53.160;7.026;2024-03-02T14:42:06;20.90;76.40
52471;DHT22;38382;53.160;7.026;2024-03-02T14:44:33;20.30;82.60
52471;DHT22;38382;53.160;7.026;2024-03-02T14:47:03;19.50;80.60
52471;DHT22;38382;53.160;7.026;2024-03-02T14:49:32;18.90;81.00
52471;DHT22;38382;53.160;7.026;2024-03-02T14:52:01;18.60;81.90
52471;DHT22;38382;53.160;7.026;2024-03-02T14:54:27;18.10;82.80
52471;DHT22;38382;53.160;7.026;2024-03-02T14:56:52;17.70;85.40
52471;DHT22;38382;53.160;7.026;2024-03-02T14:59:18;17.40;85.80
52471;DHT22;38382;53.160;7.026;2024-03-02T15:01:44;17.20;87.00
52471;DHT22;38382;53.160;7.026;2024-03-02T15:04:11;17.00;88.60
52471;DHT22;38382;53.160;7.026;2024-03-02T15:06:37;16.70;90.10
52471;DHT22;38382;53.160;7.026;2024-03-02T15:09:03;16.50;90.30
52471;DHT22;38382;53.160;7.026;2024-03-02T15:11:29;16.40;90.70
52471;DHT22;38382;53.160;7.026;2024-03-02T15:13:55;16.10;90.30
52471;DHT22;38382;53.160;7.026;2024-03-02T15:16:21;16.00;91.20
52471;DHT22;38382;53.160;7.026;2024-03-02T15:18:47;15.80;91.30
52471;DHT22;38382;53.160;7.026;2024-03-02T15:21:12;15.70;92.00
52471;DHT22;38382;53.160;7.026;2024-03-02T15:23:38;15.50;91.80
52471;DHT22;38382;53.160;7.026;2024-03-02T15:26:04;15.50;92.80
52471;DHT22;38382;53.160;7.026;2024-03-02T15:28:30;15.40;93.00
52471;DHT22;38382;53.160;7.026;2024-03-02T15:30:55;15.30;93.30
52471;DHT22;38382;53.160;7.026;2024-03-02T15:33:21;15.20;94.30
52471;DHT22;38382;53.160;7.026;2024-03-02T15:35:50;15.10;94.10
52471;DHT22;38382;53.160;7.026;2024-03-02T15:38:16;15.00;94.60
52471;DHT22;38382;53.160;7.026;2024-03-02T15:40:42;14.90;94.80
52471;DHT22;38382;53.160;7.026;2024-03-02T15:43:08;14.80;95.30
52471;DHT22;38382;53.160;7.026;2024-03-02T15:45:35;14.70;95.50
52471;DHT22;38382;53.160;7.026;2024-03-02T15:48:01;14.60;96.00
52471;DHT22;38382;53.160;7.026;2024-03-02T15:50:27;14.60;96.60
52471;DHT22;38382;53.160;7.026;2024-03-02T15:52:52;14.50;96.90
52471;DHT22;38382;53.160;7.026;2024-03-02T15:55:21;14.40;97.50